createdAt,value
2022-10-07T00:00:40.471Z,13.81
2022-10-07T00:01:42.787Z,13.87
2022-10-07T00:02:41.099Z,13.83
2022-10-07T00:03:44.339Z,13.85
2022-10-07T00:04:41.626Z,13.77
2022-10-07T00:05:43.887Z,13.71
2022-10-07T00:06:42.124Z,13.74
2022-10-07T00:07:44.635Z,13.75
2022-10-07T00:08:44.778Z,13.71
2022-10-07T00:09:43.006Z,13.74
2022-10-07T00:10:43.298Z,13.79
2022-10-07T00:11:43.576Z,13.68
2022-10-07T00:12:45.840Z,13.83
2022-10-07T00:13:45.045Z,13.86
2022-10-07T00:14:44.360Z,13.85
2022-10-07T00:15:46.619Z,13.74
2022-10-07T00:16:45.051Z,13.57
2022-10-07T00:17:45.416Z,13.70
2022-10-07T00:18:48.494Z,13.68
2022-10-07T00:19:45.751Z,13.68
2022-10-07T00:20:47.993Z,13.67
2022-10-07T00:21:46.354Z,13.60
2022-10-07T00:22:46.642Z,13.57
2022-10-07T00:23:47.176Z,13.63
2022-10-07T00:24:47.267Z,13.56
2022-10-07T00:25:49.510Z,13.70
2022-10-07T00:26:47.971Z,13.60
2022-10-07T00:27:50.254Z,13.60
2022-10-07T00:28:50.589Z,13.70
2022-10-07T00:29:48.834Z,13.72
2022-10-07T00:30:51.126Z,13.71
2022-10-07T00:31:53.550Z,13.70
2022-10-07T00:32:50.685Z,13.59
2022-10-07T00:33:49.910Z,13.67
2022-10-07T00:34:50.179Z,13.70
2022-10-07T00:35:50.357Z,13.70
2022-10-07T00:36:52.611Z,13.65
2022-10-07T00:37:54.321Z,13.63
2022-10-07T00:38:54.007Z,13.59
2022-10-07T00:39:54.696Z,13.47
2022-10-07T00:40:52.644Z,13.59
2022-10-07T00:41:54.593Z,13.56
2022-10-07T00:42:55.286Z,13.49
2022-10-07T00:43:54.516Z,13.50
2022-10-07T00:44:54.053Z,13.44
2022-10-07T00:45:54.233Z,13.49
2022-10-07T00:46:53.714Z,13.52
2022-10-07T00:47:55.896Z,13.49
2022-10-07T00:48:54.284Z,13.49
2022-10-07T00:49:57.447Z,13.54
2022-10-07T00:50:54.830Z,13.52
2022-10-07T00:51:57.006Z,13.62
2022-10-07T00:52:56.356Z,13.57
2022-10-07T00:53:56.514Z,13.62
2022-10-07T00:54:56.018Z,13.56
2022-10-07T00:55:58.207Z,13.59
2022-10-07T00:56:58.398Z,13.50
2022-10-07T00:57:58.574Z,13.46
2022-10-07T00:58:58.760Z,13.52
2022-10-07T00:59:57.514Z,13.42
2022-10-07T01:00:57.870Z,13.46
2022-10-07T01:01:58.242Z,13.46
2022-10-07T01:03:01.820Z,13.33
2022-10-07T01:04:00.557Z,13.39
2022-10-07T01:05:02.193Z,13.38
2022-10-07T01:05:59.372Z,13.41
2022-10-07T01:06:59.686Z,13.44
2022-10-07T01:08:03.321Z,13.42
2022-10-07T01:09:02.053Z,13.59
2022-10-07T01:10:02.235Z,13.50
2022-10-07T01:11:01.915Z,13.54
2022-10-07T01:12:03.081Z,13.59
2022-10-07T01:13:04.298Z,13.60
2022-10-07T01:14:03.490Z,13.62
2022-10-07T01:15:03.681Z,13.44
2022-10-07T01:16:02.459Z,13.50
2022-10-07T01:17:02.882Z,13.46
2022-10-07T01:18:06.441Z,13.42
2022-10-07T01:19:05.188Z,13.50
2022-10-07T01:20:05.369Z,13.46
2022-10-07T01:21:05.572Z,13.38
2022-10-07T01:22:07.768Z,13.35
2022-10-07T01:23:05.514Z,13.31
2022-10-07T01:24:06.740Z,13.33
2022-10-07T01:25:06.997Z,13.37
2022-10-07T01:26:05.369Z,13.30
2022-10-07T01:27:08.504Z,13.33
2022-10-07T01:28:06.857Z,13.27
2022-10-07T01:29:06.220Z,13.25
2022-10-07T01:30:06.538Z,13.25
2022-10-07T01:31:06.994Z,13.37
2022-10-07T01:32:09.019Z,13.23
2022-10-07T01:33:08.394Z,13.30
2022-10-07T01:34:09.627Z,13.19
2022-10-07T01:35:08.010Z,13.18
2022-10-07T01:36:08.326Z,13.19
2022-10-07T01:37:10.504Z,13.19
2022-10-07T01:38:09.704Z,13.11
2022-10-07T01:39:11.112Z,13.15
2022-10-07T01:40:09.501Z,13.19
2022-10-07T01:41:09.819Z,13.19
2022-10-07T01:42:10.092Z,13.19
2022-10-07T01:43:11.398Z,13.23
2022-10-07T01:44:12.614Z,13.27
2022-10-07T01:45:10.880Z,13.19
2022-10-07T01:46:11.240Z,13.27
2022-10-07T01:47:11.511Z,13.16
2022-10-07T01:48:15.191Z,13.16
2022-10-07T01:49:13.928Z,13.08
2022-10-07T01:50:12.313Z,13.09
2022-10-07T01:51:12.659Z,13.05
2022-10-07T01:52:12.976Z,13.11
2022-10-07T01:53:15.203Z,13.00
2022-10-07T01:54:13.592Z,13.03
2022-10-07T01:55:13.909Z,13.11
2022-10-07T01:56:14.223Z,13.11
2022-10-07T01:57:14.532Z,13.08
2022-10-07T01:58:17.900Z,13.01
2022-10-07T01:59:17.048Z,13.01
2022-10-07T02:00:15.299Z,13.09
2022-10-07T02:01:17.544Z,13.01
2022-10-07T02:02:17.677Z,13.01
2022-10-07T02:03:17.193Z,13.04
2022-10-07T02:04:16.546Z,13.15
2022-10-07T02:05:16.854Z,13.08
2022-10-07T02:06:17.205Z,13.03
2022-10-07T02:07:19.359Z,13.03
2022-10-07T02:08:20.526Z,13.01
2022-10-07T02:09:18.058Z,13.03
2022-10-07T02:10:18.361Z,13.00
2022-10-07T02:11:18.672Z,13.08
2022-10-07T02:12:20.853Z,13.00
2022-10-07T02:13:22.044Z,13.00
2022-10-07T02:14:19.565Z,13.03
2022-10-07T02:15:19.894Z,13.08
2022-10-07T02:16:20.252Z,13.05
2022-10-07T02:17:20.439Z,13.08
2022-10-07T02:18:21.871Z,12.93
2022-10-07T02:19:21.003Z,13.04
2022-10-07T02:20:21.300Z,13.05
2022-10-07T02:21:21.619Z,13.05
2022-10-07T02:22:21.903Z,13.05
2022-10-07T02:23:25.594Z,13.03
2022-10-07T02:24:22.505Z,13.11
2022-10-07T02:25:22.820Z,13.05
2022-10-07T02:26:23.125Z,12.97
2022-10-07T02:27:26.257Z,13.03
2022-10-07T02:28:24.788Z,13.01
2022-10-07T02:29:25.974Z,13.03
2022-10-07T02:30:24.224Z,13.15
2022-10-07T02:31:26.505Z,13.11
2022-10-07T02:32:24.761Z,13.13
2022-10-07T02:33:26.045Z,13.22
2022-10-07T02:34:27.275Z,13.23
2022-10-07T02:35:25.663Z,13.23
2022-10-07T02:36:25.975Z,13.30
2022-10-07T02:37:26.262Z,13.38
2022-10-07T02:38:27.586Z,13.23
2022-10-07T02:39:28.821Z,13.15
2022-10-07T02:40:27.091Z,13.27
2022-10-07T02:41:27.393Z,13.27
2022-10-07T02:42:29.574Z,13.19
2022-10-07T02:43:29.154Z,13.15
2022-10-07T02:44:28.279Z,13.22
2022-10-07T02:45:28.575Z,13.19
2022-10-07T02:46:30.805Z,13.08
2022-10-07T02:47:29.166Z,13.15
2022-10-07T02:48:30.375Z,13.22
2022-10-07T02:49:31.736Z,13.28
2022-10-07T02:50:30.006Z,13.27
2022-10-07T02:51:32.180Z,13.22
2022-10-07T02:52:32.360Z,13.16
2022-10-07T02:53:33.548Z,13.13
2022-10-07T02:54:31.203Z,13.13
2022-10-07T02:55:31.492Z,13.11
2022-10-07T02:56:31.808Z,13.05
2022-10-07T02:57:33.994Z,13.16
2022-10-07T02:58:36.064Z,13.08
2022-10-07T02:59:32.714Z,13.11
2022-10-07T03:00:34.909Z,13.15
2022-10-07T03:01:33.370Z,13.18
2022-10-07T03:02:35.469Z,13.13
2022-10-07T03:03:34.918Z,13.13
2022-10-07T03:04:36.098Z,13.23
2022-10-07T03:05:35.397Z,13.15
2022-10-07T03:06:36.676Z,13.08
2022-10-07T03:07:36.868Z,13.08
2022-10-07T03:08:38.073Z,13.04
2022-10-07T03:09:37.351Z,13.15
2022-10-07T03:10:37.522Z,13.01
2022-10-07T03:11:36.140Z,12.97
2022-10-07T03:12:38.331Z,13.05
2022-10-07T03:13:39.527Z,13.03
2022-10-07T03:14:38.771Z,13.05
2022-10-07T03:15:42.331Z,12.97
2022-10-07T03:16:39.155Z,13.00
2022-10-07T03:17:39.335Z,12.98
2022-10-07T03:18:41.517Z,12.97
2022-10-07T03:19:38.430Z,13.04
2022-10-07T03:20:38.758Z,13.09
2022-10-07T03:21:39.071Z,12.93
2022-10-07T03:22:39.389Z,13.01
2022-10-07T03:23:42.552Z,13.01
2022-10-07T03:24:39.963Z,13.03
2022-10-07T03:25:40.266Z,12.97
2022-10-07T03:26:40.581Z,12.95
2022-10-07T03:27:43.188Z,12.91
2022-10-07T03:28:43.256Z,13.00
2022-10-07T03:29:42.428Z,12.93
2022-10-07T03:30:43.635Z,12.90
2022-10-07T03:31:42.194Z,12.87
2022-10-07T03:32:44.334Z,12.91
2022-10-07T03:33:45.624Z,12.79
2022-10-07T03:34:43.020Z,12.76
2022-10-07T03:35:45.248Z,12.78
2022-10-07T03:36:43.626Z,12.82
2022-10-07T03:37:44.075Z,12.72
2022-10-07T03:38:47.078Z,12.82
2022-10-07T03:39:44.486Z,12.73
2022-10-07T03:40:44.794Z,12.79
2022-10-07T03:41:47.937Z,12.73
2022-10-07T03:42:45.360Z,12.68
2022-10-07T03:43:47.649Z,12.75
2022-10-07T03:44:47.727Z,12.75
2022-10-07T03:45:46.242Z,12.80
2022-10-07T03:46:48.466Z,12.78
2022-10-07T03:47:48.612Z,12.61
2022-10-07T03:48:48.908Z,12.54
2022-10-07T03:49:49.079Z,12.68
2022-10-07T03:50:47.749Z,12.64
2022-10-07T03:51:50.852Z,12.61
2022-10-07T03:52:48.264Z,12.68
2022-10-07T03:53:50.423Z,12.70
2022-10-07T03:54:50.607Z,12.68
2022-10-07T03:55:49.112Z,12.64
2022-10-07T03:56:49.414Z,12.61
2022-10-07T03:57:49.727Z,12.60
2022-10-07T03:58:50.071Z,12.58
2022-10-07T03:59:52.204Z,12.57
2022-10-07T04:00:50.598Z,12.57
2022-10-07T04:01:53.384Z,12.55
2022-10-07T04:02:51.332Z,12.45
2022-10-07T04:03:51.483Z,12.47
2022-10-07T04:04:53.669Z,12.49
2022-10-07T04:05:52.046Z,12.50
2022-10-07T04:06:52.361Z,12.57
2022-10-07T04:07:52.691Z,12.54
2022-10-07T04:08:54.896Z,12.45
2022-10-07T04:09:55.140Z,12.46
2022-10-07T04:10:54.321Z,12.53
2022-10-07T04:11:55.270Z,12.55
2022-10-07T04:12:54.132Z,12.50
2022-10-07T04:13:56.321Z,12.50
2022-10-07T04:14:56.503Z,12.57
2022-10-07T04:15:55.052Z,12.50
2022-10-07T04:16:55.350Z,12.57
2022-10-07T04:17:58.983Z,12.54
2022-10-07T04:18:58.722Z,12.49
2022-10-07T04:19:57.934Z,12.58
2022-10-07T04:20:56.557Z,12.50
2022-10-07T04:21:56.869Z,12.55
2022-10-07T04:22:57.161Z,12.65
2022-10-07T04:23:59.322Z,12.68
2022-10-07T04:24:59.508Z,12.60
2022-10-07T04:25:58.148Z,12.64
2022-10-07T04:26:58.447Z,12.58
2022-10-07T04:27:58.850Z,12.58
2022-10-07T04:29:00.927Z,12.57
2022-10-07T04:29:59.507Z,12.64
2022-10-07T04:31:02.488Z,12.78
2022-10-07T04:31:59.859Z,12.80
2022-10-07T04:33:00.158Z,12.82
2022-10-07T04:34:02.476Z,12.83
2022-10-07T04:35:02.533Z,12.70
2022-10-07T04:36:02.710Z,12.62
2022-10-07T04:37:02.253Z,12.65
2022-10-07T04:38:02.510Z,12.64
2022-10-07T04:39:01.882Z,12.49
2022-10-07T04:40:02.206Z,12.53
2022-10-07T04:41:04.396Z,12.50
2022-10-07T04:42:03.821Z,12.58
2022-10-07T04:43:04.050Z,12.49
2022-10-07T04:44:06.245Z,12.50
2022-10-07T04:45:03.826Z,12.58
2022-10-07T04:46:03.995Z,12.46
2022-10-07T04:47:05.208Z,12.43
2022-10-07T04:48:05.593Z,12.49
2022-10-07T04:49:06.831Z,12.49
2022-10-07T04:50:05.092Z,12.46
2022-10-07T04:51:06.324Z,12.43
2022-10-07T04:52:07.447Z,12.46
2022-10-07T04:53:06.926Z,12.39
2022-10-07T04:54:08.160Z,12.39
2022-10-07T04:55:08.344Z,12.43
2022-10-07T04:56:06.977Z,12.46
2022-10-07T04:57:08.013Z,12.43
2022-10-07T04:58:08.335Z,12.36
2022-10-07T04:59:09.565Z,12.25
2022-10-07T05:00:09.742Z,12.22
2022-10-07T05:01:08.353Z,12.39
2022-10-07T05:02:08.635Z,12.35
2022-10-07T05:03:12.206Z,12.36
2022-10-07T05:04:09.093Z,12.35
2022-10-07T05:05:10.298Z,12.35
2022-10-07T05:06:11.443Z,12.27
2022-10-07T05:07:09.946Z,12.28
2022-10-07T05:08:13.607Z,12.37
2022-10-07T05:09:12.342Z,12.36
2022-10-07T05:10:12.526Z,12.27
2022-10-07T05:11:12.725Z,12.31
2022-10-07T05:12:13.384Z,12.31
2022-10-07T05:13:15.139Z,12.29
2022-10-07T05:14:13.838Z,12.24
2022-10-07T05:15:14.028Z,12.27
2022-10-07T05:16:13.654Z,12.18
2022-10-07T05:17:13.944Z,12.13
2022-10-07T05:18:14.329Z,12.20
2022-10-07T05:19:15.566Z,12.20
2022-10-07T05:20:14.760Z,12.12
2022-10-07T05:21:14.916Z,12.13
2022-10-07T05:22:14.421Z,12.21
2022-10-07T05:23:15.741Z,12.20
2022-10-07T05:24:18.390Z,12.17
2022-10-07T05:25:17.130Z,12.15
2022-10-07T05:26:15.660Z,12.24
2022-10-07T05:27:16.003Z,12.17
2022-10-07T05:28:17.383Z,12.09
2022-10-07T05:29:18.547Z,12.24
2022-10-07T05:30:16.937Z,12.12
2022-10-07T05:31:17.322Z,12.21
2022-10-07T05:32:17.504Z,12.21
2022-10-07T05:33:17.862Z,12.17
2022-10-07T05:34:20.043Z,12.21
2022-10-07T05:35:20.257Z,12.36
2022-10-07T05:36:18.654Z,12.37
2022-10-07T05:37:18.992Z,12.28
2022-10-07T05:38:19.309Z,12.24
2022-10-07T05:39:22.494Z,12.25
2022-10-07T05:40:20.774Z,12.24
2022-10-07T05:41:22.100Z,12.22
2022-10-07T05:42:22.261Z,12.27
2022-10-07T05:43:22.446Z,12.24
2022-10-07T05:44:23.661Z,12.21
2022-10-07T05:45:21.419Z,12.22
2022-10-07T05:46:21.865Z,12.21
2022-10-07T05:47:22.041Z,12.24
2022-10-07T05:48:24.209Z,12.35
2022-10-07T05:49:23.491Z,12.17
2022-10-07T05:50:24.838Z,12.31
2022-10-07T05:51:25.134Z,12.31
2022-10-07T05:52:23.423Z,12.28
2022-10-07T05:53:25.605Z,12.31
2022-10-07T05:54:25.063Z,12.22
2022-10-07T05:55:24.354Z,12.27
2022-10-07T05:56:24.690Z,12.22
2022-10-07T05:57:28.338Z,12.32
2022-10-07T05:58:27.064Z,12.28
2022-10-07T05:59:26.454Z,12.25
2022-10-07T06:00:25.727Z,12.24
2022-10-07T06:01:26.080Z,12.32
2022-10-07T06:02:26.368Z,12.35
2022-10-07T06:03:28.534Z,12.35
2022-10-07T06:04:27.943Z,12.47
2022-10-07T06:05:27.212Z,12.49
2022-10-07T06:06:27.436Z,12.42
2022-10-07T06:07:29.477Z,12.50
2022-10-07T06:08:31.436Z,12.61
2022-10-07T06:09:29.345Z,12.46
2022-10-07T06:10:28.644Z,12.49
2022-10-07T06:11:28.953Z,12.47
2022-10-07T06:12:32.106Z,12.42
2022-10-07T06:13:32.279Z,12.37
2022-10-07T06:14:31.568Z,12.32
2022-10-07T06:15:31.751Z,12.35
2022-10-07T06:16:31.483Z,12.29
2022-10-07T06:17:30.773Z,12.37
2022-10-07T06:18:32.912Z,12.36
2022-10-07T06:19:32.699Z,12.43
2022-10-07T06:20:31.477Z,12.42
2022-10-07T06:21:31.707Z,12.45
2022-10-07T06:22:32.038Z,12.54
2022-10-07T06:23:34.343Z,12.39
2022-10-07T06:24:35.408Z,12.58
2022-10-07T06:25:32.979Z,12.47
2022-10-07T06:26:36.593Z,12.43
2022-10-07T06:27:33.518Z,12.36
2022-10-07T06:28:34.625Z,12.39
2022-10-07T06:29:36.930Z,12.46
2022-10-07T06:30:36.397Z,12.47
2022-10-07T06:31:35.337Z,12.37
2022-10-07T06:32:35.749Z,12.32
2022-10-07T06:33:36.124Z,12.32
2022-10-07T06:34:37.375Z,12.28
2022-10-07T06:35:37.529Z,12.32
2022-10-07T06:36:36.903Z,12.42
2022-10-07T06:37:37.095Z,12.31
2022-10-07T06:38:36.515Z,12.36
2022-10-07T06:39:40.189Z,12.28
2022-10-07T06:40:38.053Z,12.32
2022-10-07T06:41:37.478Z,12.37
2022-10-07T06:42:39.651Z,12.39
2022-10-07T06:43:38.065Z,12.40
2022-10-07T06:44:39.382Z,12.42
2022-10-07T06:45:38.676Z,12.46
2022-10-07T06:46:41.301Z,12.35
2022-10-07T06:47:40.029Z,12.53
2022-10-07T06:48:41.219Z,12.55
2022-10-07T06:49:41.478Z,12.45
2022-10-07T06:50:41.662Z,12.47
2022-10-07T06:51:40.449Z,12.54
2022-10-07T06:52:43.419Z,12.57
2022-10-07T06:53:40.909Z,12.54
2022-10-07T06:54:42.224Z,12.60
2022-10-07T06:55:41.494Z,12.54
2022-10-07T06:56:43.688Z,12.61
2022-10-07T06:57:46.569Z,12.72
2022-10-07T06:58:42.359Z,12.78
2022-10-07T06:59:45.554Z,12.79
2022-10-07T07:00:42.837Z,12.76
2022-10-07T07:01:45.055Z,12.82
2022-10-07T07:02:43.532Z,13.08
2022-10-07T07:03:43.764Z,13.57
2022-10-07T07:04:46.973Z,13.78
2022-10-07T07:05:45.802Z,13.89
2022-10-07T07:06:44.529Z,13.71
2022-10-07T07:07:46.992Z,14.22
2022-10-07T07:08:46.181Z,14.44
2022-10-07T07:09:48.815Z,14.10
2022-10-07T07:10:45.764Z,13.93
2022-10-07T07:11:48.298Z,14.22
2022-10-07T07:12:48.522Z,14.14
2022-10-07T07:13:46.693Z,14.15
2022-10-07T07:14:50.362Z,14.20
2022-10-07T07:15:49.083Z,14.12
2022-10-07T07:16:49.342Z,14.40
2022-10-07T07:17:48.506Z,14.45
2022-10-07T07:18:49.177Z,14.48
2022-10-07T07:19:50.466Z,14.51
2022-10-07T07:20:50.601Z,14.63
2022-10-07T07:21:51.212Z,14.79
2022-10-07T07:22:49.335Z,14.65
2022-10-07T07:23:51.207Z,14.53
2022-10-07T07:24:49.995Z,14.33
2022-10-07T07:25:53.618Z,14.54
2022-10-07T07:26:50.575Z,14.63
2022-10-07T07:27:56.751Z,14.32
2022-10-07T07:28:55.207Z,14.63
2022-10-07T07:29:53.309Z,14.97
2022-10-07T07:30:53.508Z,15.18
2022-10-07T07:31:53.958Z,15.29
2022-10-07T07:32:54.368Z,15.00
2022-10-07T07:33:55.571Z,15.18
2022-10-07T07:34:54.787Z,15.18
2022-10-07T07:35:54.957Z,15.24
2022-10-07T07:36:54.098Z,15.29
2022-10-07T07:37:53.885Z,15.72
2022-10-07T07:38:55.202Z,15.22
2022-10-07T07:39:56.426Z,14.99
2022-10-07T07:40:54.736Z,15.04
2022-10-07T07:41:54.966Z,15.19
2022-10-07T07:42:55.441Z,15.24
2022-10-07T07:43:58.849Z,15.75
2022-10-07T07:44:57.757Z,15.67
2022-10-07T07:45:56.098Z,15.76
2022-10-07T07:46:57.281Z,15.82
2022-10-07T07:47:57.476Z,15.64
2022-10-07T07:49:00.301Z,15.68
2022-10-07T07:49:59.049Z,15.17
2022-10-07T07:50:59.191Z,15.24
2022-10-07T07:51:58.562Z,15.17
2022-10-07T07:52:57.901Z,15.15
2022-10-07T07:53:58.359Z,15.02
2022-10-07T07:55:00.368Z,14.68
2022-10-07T07:55:59.666Z,14.69
2022-10-07T07:56:58.923Z,14.48
2022-10-07T07:57:59.150Z,14.28
2022-10-07T07:59:02.792Z,14.23
2022-10-07T07:59:59.741Z,14.41
2022-10-07T08:01:00.125Z,14.44
2022-10-07T08:02:01.338Z,14.18
2022-10-07T08:03:00.621Z,14.14
2022-10-07T08:04:02.810Z,14.10
2022-10-07T08:05:01.112Z,14.29
2022-10-07T08:06:01.348Z,14.08
2022-10-07T08:07:03.513Z,14.22
2022-10-07T08:08:01.922Z,14.23
2022-10-07T08:09:04.131Z,14.50
2022-10-07T08:10:02.763Z,14.44
2022-10-07T08:11:02.824Z,14.36
2022-10-07T08:12:05.934Z,14.40
2022-10-07T08:13:03.374Z,14.54
2022-10-07T08:14:05.544Z,15.03
2022-10-07T08:15:04.015Z,15.24
2022-10-07T08:16:04.157Z,14.92
2022-10-07T08:17:04.374Z,15.21
2022-10-07T08:18:04.583Z,15.47
2022-10-07T08:19:06.775Z,15.35
2022-10-07T08:20:05.183Z,15.19
2022-10-07T08:21:05.545Z,15.80
2022-10-07T08:22:06.764Z,15.98
2022-10-07T08:23:07.933Z,16.01
2022-10-07T08:24:08.115Z,16.04
2022-10-07T08:25:06.662Z,16.16
2022-10-07T08:26:06.912Z,16.50
2022-10-07T08:27:07.138Z,16.42
2022-10-07T08:28:07.413Z,16.47
2022-10-07T08:29:10.520Z,16.15
2022-10-07T08:30:07.959Z,15.86
2022-10-07T08:31:10.193Z,16.42
2022-10-07T08:32:10.909Z,16.43
2022-10-07T08:33:10.625Z,16.64
2022-10-07T08:34:11.749Z,16.50
2022-10-07T08:35:10.938Z,16.09
2022-10-07T08:36:11.616Z,16.13
2022-10-07T08:37:10.949Z,16.33
2022-10-07T08:38:14.370Z,16.26
2022-10-07T08:39:12.569Z,16.05
2022-10-07T08:40:11.784Z,16.17
2022-10-07T08:41:13.089Z,16.58
2022-10-07T08:42:11.394Z,16.58
2022-10-07T08:43:11.681Z,16.72
2022-10-07T08:44:16.407Z,16.71
2022-10-07T08:45:12.251Z,16.53
2022-10-07T08:46:13.490Z,16.17
2022-10-07T08:47:13.573Z,16.33
2022-10-07T08:48:13.992Z,16.46
2022-10-07T08:49:15.237Z,16.64
2022-10-07T08:50:19.487Z,16.74
2022-10-07T08:51:14.735Z,16.91
2022-10-07T08:52:15.104Z,16.90
2022-10-07T08:53:17.812Z,17.22
2022-10-07T08:54:17.522Z,17.01
2022-10-07T08:55:17.690Z,17.20
2022-10-07T08:56:16.878Z,17.49
2022-10-07T08:57:15.445Z,17.76
2022-10-07T08:58:16.698Z,17.60
2022-10-07T08:59:16.002Z,17.83
2022-10-07T09:00:16.246Z,17.86
2022-10-07T09:01:17.500Z,18.13
2022-10-07T09:02:18.635Z,18.37
2022-10-07T09:03:24.781Z,18.08
2022-10-07T09:04:18.404Z,17.63
2022-10-07T09:05:20.556Z,17.63
2022-10-07T09:06:19.763Z,17.54
2022-10-07T09:07:19.951Z,17.41
2022-10-07T09:08:21.114Z,17.54
2022-10-07T09:09:20.825Z,17.70
2022-10-07T09:10:20.085Z,17.51
2022-10-07T09:11:19.705Z,17.57
2022-10-07T09:12:19.911Z,17.64
2022-10-07T09:13:21.138Z,18.04
2022-10-07T09:14:22.377Z,18.28
2022-10-07T09:15:22.561Z,18.47
2022-10-07T09:16:22.742Z,18.07
2022-10-07T09:17:21.329Z,18.00
2022-10-07T09:18:24.468Z,17.74
2022-10-07T09:19:21.793Z,18.13
2022-10-07T09:20:23.973Z,18.18
2022-10-07T09:21:24.170Z,18.10
2022-10-07T09:22:24.547Z,17.90
2022-10-07T09:23:23.684Z,17.87
2022-10-07T09:24:23.105Z,17.94
2022-10-07T09:25:25.309Z,17.74
2022-10-07T09:26:23.612Z,17.85
2022-10-07T09:27:25.813Z,17.67
2022-10-07T09:28:24.268Z,17.64
2022-10-07T09:29:26.448Z,17.92
2022-10-07T09:30:26.618Z,17.65
2022-10-07T09:31:26.842Z,18.11
2022-10-07T09:32:25.372Z,17.90
2022-10-07T09:33:26.572Z,17.90
2022-10-07T09:34:25.883Z,17.45
2022-10-07T09:35:28.066Z,17.79
2022-10-07T09:36:26.366Z,18.53
2022-10-07T09:37:26.599Z,18.59
2022-10-07T09:38:27.793Z,18.45
2022-10-07T09:39:27.093Z,18.41
2022-10-07T09:40:27.339Z,18.18
2022-10-07T09:41:31.260Z,18.44
2022-10-07T09:42:27.882Z,18.22
2022-10-07T09:43:28.933Z,18.01
2022-10-07T09:44:30.306Z,17.76
2022-10-07T09:45:28.604Z,17.46
2022-10-07T09:46:28.918Z,17.42
2022-10-07T09:47:29.138Z,17.74
2022-10-07T09:48:32.765Z,18.20
2022-10-07T09:49:32.980Z,18.44
2022-10-07T09:50:29.934Z,18.35
2022-10-07T09:51:30.178Z,18.41
2022-10-07T09:52:30.401Z,18.81
2022-10-07T09:53:32.673Z,18.93
2022-10-07T09:54:30.940Z,18.84
2022-10-07T09:55:34.587Z,18.63
2022-10-07T09:56:31.401Z,18.88
2022-10-07T09:57:31.632Z,18.95
2022-10-07T09:58:31.934Z,18.71
2022-10-07T09:59:34.105Z,18.62
2022-10-07T10:00:32.434Z,18.92
2022-10-07T10:01:34.628Z,18.49
2022-10-07T10:02:34.917Z,18.70
2022-10-07T10:03:34.281Z,18.80
2022-10-07T10:04:35.374Z,18.59
2022-10-07T10:05:33.803Z,18.80
2022-10-07T10:06:34.254Z,18.37
2022-10-07T10:07:36.248Z,18.44
2022-10-07T10:08:35.593Z,18.52
2022-10-07T10:09:34.921Z,17.79
2022-10-07T10:10:35.113Z,18.07
2022-10-07T10:11:35.529Z,18.65
2022-10-07T10:12:39.413Z,18.63
2022-10-07T10:13:36.821Z,18.88
2022-10-07T10:14:36.139Z,18.90
2022-10-07T10:15:36.407Z,19.31
2022-10-07T10:16:36.641Z,18.47
2022-10-07T10:17:38.832Z,18.18
2022-10-07T10:18:38.172Z,18.13
2022-10-07T10:19:39.370Z,18.62
2022-10-07T10:20:37.781Z,18.80
2022-10-07T10:21:38.009Z,18.59
2022-10-07T10:22:40.193Z,18.03
2022-10-07T10:23:41.882Z,17.49
2022-10-07T10:24:38.715Z,18.23
2022-10-07T10:25:40.903Z,18.99
2022-10-07T10:26:39.209Z,19.52
2022-10-07T10:27:41.417Z,19.33
2022-10-07T10:28:43.128Z,19.34
2022-10-07T10:29:39.968Z,19.16
2022-10-07T10:30:42.149Z,19.74
2022-10-07T10:31:42.332Z,19.22
2022-10-07T10:32:40.775Z,19.14
2022-10-07T10:33:44.467Z,19.26
2022-10-07T10:34:41.291Z,19.69
2022-10-07T10:35:41.649Z,19.24
2022-10-07T10:36:43.824Z,19.54
2022-10-07T10:37:42.950Z,19.63
2022-10-07T10:38:45.842Z,19.51
2022-10-07T10:39:43.530Z,19.45
2022-10-07T10:40:42.932Z,18.96
2022-10-07T10:41:45.128Z,18.58
2022-10-07T10:42:43.767Z,18.55
2022-10-07T10:43:44.790Z,18.88
2022-10-07T10:44:45.131Z,19.45
2022-10-07T10:45:44.383Z,19.73
2022-10-07T10:46:47.399Z,19.39
2022-10-07T10:47:46.853Z,18.88
2022-10-07T10:48:48.519Z,18.07
2022-10-07T10:49:45.488Z,18.29
2022-10-07T10:50:49.097Z,18.58
2022-10-07T10:51:46.981Z,18.70
2022-10-07T10:52:47.530Z,18.80
2022-10-07T10:53:47.593Z,18.78
2022-10-07T10:54:48.840Z,18.88
2022-10-07T10:55:47.299Z,18.66
2022-10-07T10:56:48.307Z,18.88
2022-10-07T10:57:49.573Z,18.65
2022-10-07T10:58:50.730Z,18.73
2022-10-07T10:59:48.293Z,18.37
2022-10-07T11:00:48.539Z,18.37
2022-10-07T11:01:48.834Z,18.70
2022-10-07T11:02:51.034Z,18.65
2022-10-07T11:03:51.242Z,18.44
2022-10-07T11:04:49.600Z,18.96
2022-10-07T11:05:50.734Z,19.08
2022-10-07T11:06:51.969Z,18.86
2022-10-07T11:07:51.085Z,19.00
2022-10-07T11:08:53.457Z,18.38
2022-10-07T11:09:52.681Z,18.49
2022-10-07T11:10:52.877Z,18.80
2022-10-07T11:11:51.334Z,19.19
2022-10-07T11:12:51.575Z,19.41
2022-10-07T11:13:53.347Z,19.52
2022-10-07T11:14:57.593Z,19.44
2022-10-07T11:15:52.502Z,19.55
2022-10-07T11:16:52.815Z,19.14
2022-10-07T11:17:53.832Z,19.51
2022-10-07T11:18:57.036Z,19.66
2022-10-07T11:19:53.633Z,19.04
2022-10-07T11:20:53.964Z,18.74
2022-10-07T11:21:56.043Z,18.45
2022-10-07T11:22:54.478Z,18.92
2022-10-07T11:23:55.701Z,19.11
2022-10-07T11:24:56.932Z,19.02
2022-10-07T11:25:57.108Z,19.12
2022-10-07T11:26:57.266Z,19.22
2022-10-07T11:27:57.436Z,19.62
2022-10-07T11:28:59.590Z,19.26
2022-10-07T11:29:58.297Z,19.19
2022-10-07T11:30:58.563Z,19.02
2022-10-07T11:31:58.657Z,18.78
2022-10-07T11:32:59.323Z,18.96
2022-10-07T11:34:00.942Z,19.08
2022-10-07T11:35:01.162Z,19.29
2022-10-07T11:35:58.899Z,18.65
2022-10-07T11:37:00.582Z,19.27
2022-10-07T11:38:00.775Z,19.34
2022-10-07T11:39:02.417Z,19.92
2022-10-07T11:39:59.490Z,20.56
2022-10-07T11:41:01.760Z,19.69
2022-10-07T11:42:00.053Z,19.71
2022-10-07T11:43:02.240Z,19.91
2022-10-07T11:44:02.429Z,20.09
2022-10-07T11:45:00.879Z,19.44
2022-10-07T11:46:04.253Z,18.41
2022-10-07T11:47:01.380Z,18.52
2022-10-07T11:48:01.574Z,18.86
2022-10-07T11:49:01.821Z,19.30
2022-10-07T11:50:02.066Z,20.04
2022-10-07T11:51:03.745Z,19.69
2022-10-07T11:52:02.654Z,19.70
2022-10-07T11:53:02.897Z,19.49
2022-10-07T11:54:05.100Z,19.48
2022-10-07T11:55:03.411Z,18.92
2022-10-07T11:56:03.657Z,18.63
2022-10-07T11:57:05.856Z,18.47
2022-10-07T11:58:04.167Z,18.81
2022-10-07T11:59:06.447Z,18.66
2022-10-07T12:00:06.575Z,18.86
2022-10-07T12:01:06.747Z,19.00
2022-10-07T12:02:05.244Z,18.96
2022-10-07T12:03:05.488Z,19.19
2022-10-07T12:04:09.159Z,19.63
2022-10-07T12:05:05.968Z,19.82
2022-10-07T12:06:06.211Z,20.10
2022-10-07T12:07:06.445Z,19.37
2022-10-07T12:08:06.712Z,19.00
2022-10-07T12:09:10.350Z,19.19
2022-10-07T12:10:09.098Z,19.16
2022-10-07T12:11:07.516Z,19.08
2022-10-07T12:12:07.639Z,19.52
2022-10-07T12:13:09.817Z,19.31
2022-10-07T12:14:09.061Z,19.27
2022-10-07T12:15:08.364Z,19.67
2022-10-07T12:16:08.640Z,19.85
2022-10-07T12:17:08.855Z,20.40
2022-10-07T12:18:11.028Z,20.37
2022-10-07T12:19:10.392Z,20.14
2022-10-07T12:20:09.682Z,19.51
2022-10-07T12:21:09.927Z,18.98
2022-10-07T12:22:12.108Z,18.92
2022-10-07T12:23:10.414Z,19.04
2022-10-07T12:24:13.056Z,19.34
2022-10-07T12:25:11.351Z,19.30
2022-10-07T12:26:11.252Z,19.36
2022-10-07T12:27:13.435Z,19.18
2022-10-07T12:28:11.792Z,19.47
2022-10-07T12:29:12.997Z,19.49
2022-10-07T12:30:12.315Z,19.41
2022-10-07T12:31:12.601Z,19.29
2022-10-07T12:32:14.733Z,18.98
2022-10-07T12:33:13.045Z,19.49
2022-10-07T12:34:16.197Z,19.54
2022-10-07T12:35:15.437Z,19.22
2022-10-07T12:36:13.750Z,18.75
2022-10-07T12:37:13.994Z,18.62
2022-10-07T12:38:14.258Z,18.37
2022-10-07T12:39:17.900Z,18.31
2022-10-07T12:40:14.845Z,18.20
2022-10-07T12:41:17.887Z,18.20
2022-10-07T12:42:15.320Z,17.89
2022-10-07T12:43:15.552Z,18.11
2022-10-07T12:44:15.852Z,18.29
2022-10-07T12:45:16.074Z,18.56
2022-10-07T12:46:18.317Z,18.88
2022-10-07T12:47:18.559Z,18.47
2022-10-07T12:48:18.762Z,18.08
2022-10-07T12:49:17.991Z,17.86
2022-10-07T12:50:17.520Z,17.95
2022-10-07T12:51:17.762Z,18.16
2022-10-07T12:52:21.448Z,18.05
2022-10-07T12:53:20.138Z,18.05
2022-10-07T12:54:19.562Z,17.94
2022-10-07T12:55:18.859Z,17.89
2022-10-07T12:56:19.098Z,17.97